Time;durP1;ratioP1;P1;durP2;ratioP2;P2;SDS_P1;SDS_P2;PMS_P1;PMS_P2;Temp;Humidity;BMP_temperature;BMP_pressure;BME280_temperature;BME280_humidity;BME280_pressure;Samples;Min_cycle;Max_cycle;Signal;HPM_P1;HPM_P2
2022/01/05 00:03:36;;;;;;;1.00;0.68;;;13.20;70.20;;;;;;10529049;28;20024;-54
2022/01/05 00:08:36;;;;;;;2.30;0.50;;;13.20;70.20;;;;;;10520967;28;20032;-55
2022/01/05 00:13:38;;;;;;;0.95;0.45;;;13.20;70.20;;;;;;10538268;28;20469;-54
2022/01/05 00:18:38;;;;;;;2.35;1.02;;;13.20;70.20;;;;;;10519764;28;20024;-55
2022/01/05 00:23:39;;;;;;;1.00;0.60;;;13.20;70.20;;;;;;10519422;28;20130;-55
2022/01/05 00:28:40;;;;;;;2.42;0.40;;;13.10;70.10;;;;;;10519579;28;20110;-56
2022/01/05 00:33:40;;;;;;;0.98;0.47;;;13.10;70.20;;;;;;10519337;28;20483;-56
2022/01/05 00:38:41;;;;;;;1.02;0.52;;;13.10;70.20;;;;;;10537183;28;20103;-54
2022/01/05 00:43:42;;;;;;;0.88;0.65;;;13.10;70.20;;;;;;10537169;28;20621;-56
2022/01/05 00:48:42;;;;;;;0.65;0.50;;;13.10;70.20;;;;;;10518791;28;20063;-56
2022/01/05 00:53:43;;;;;;;0.52;0.40;;;13.10;70.20;;;;;;10518771;28;20028;-55
2022/01/05 00:58:44;;;;;;;0.43;0.40;;;13.10;70.20;;;;;;10554004;28;20476;-55
2022/01/05 01:03:45;;;;;;;0.70;0.47;;;13.10;70.20;;;;;;10525463;28;20032;-56
2022/01/05 01:08:46;;;;;;;0.43;0.43;;;13.10;70.20;;;;;;10536506;28;20068;-55
2022/01/05 01:13:47;;;;;;;0.73;0.70;;;13.10;70.20;;;;;;10501385;28;20541;-54
2022/01/05 01:18:48;;;;;;;0.82;0.50;;;13.10;70.10;;;;;;10518337;28;20089;-55
2022/01/05 01:23:55;;;;;;;0.73;0.40;;;13.10;70.20;;;;;;10517651;28;20063;-54
2022/01/05 01:28:57;;;;;;;1.10;0.47;;;13.00;70.10;;;;;;10545000;28;20085;-56
2022/01/05 01:33:58;;;;;;;1.30;0.60;;;13.00;70.10;;;;;;10549956;28;20028;-55
2022/01/05 01:38:59;;;;;;;0.85;0.75;;;13.00;70.10;;;;;;10549525;28;20253;-55
2022/01/05 01:44:00;;;;;;;1.55;0.70;;;13.00;70.10;;;;;;10549750;28;20190;-55
2022/01/05 01:49:00;;;;;;;0.93;0.40;;;13.00;70.10;;;;;;10531379;28;20036;-55
2022/01/05 01:54:03;;;;;;;0.98;0.68;;;13.00;70.10;;;;;;10549549;28;20403;-55
2022/01/05 01:59:06;;;;;;;0.90;0.52;;;13.00;70.10;;;;;;10569666;28;20092;-56
2022/01/05 02:04:07;;;;;;;0.82;0.68;;;13.00;70.10;;;;;;10535321;28;20357;-55
2022/01/05 02:09:08;;;;;;;2.15;0.88;;;13.00;70.10;;;;;;10549646;28;20114;-55
2022/01/05 02:14:08;;;;;;;0.88;0.52;;;13.00;70.20;;;;;;10549035;28;20433;-54
2022/01/05 02:19:09;;;;;;;0.82;0.55;;;13.00;70.10;;;;;;10514095;28;20028;-55
2022/01/05 02:24:11;;;;;;;0.93;0.40;;;13.00;70.10;;;;;;10530732;28;20036;-55
2022/01/05 02:29:12;;;;;;;1.42;0.75;;;13.00;70.10;;;;;;10530558;28;20084;-55
2022/01/05 02:34:16;;;;;;;2.03;0.55;;;12.90;70.00;;;;;;10513928;28;20085;-55
2022/01/05 02:39:16;;;;;;;0.68;0.40;;;12.90;70.10;;;;;;10527323;28;20875;-54
2022/01/05 02:44:17;;;;;;;1.25;0.55;;;12.90;70.10;;;;;;10507427;28;20084;-56
2022/01/05 02:49:18;;;;;;;0.88;0.50;;;12.90;70.00;;;;;;10523656;28;20103;-55
2022/01/05 02:54:18;;;;;;;1.63;0.50;;;12.90;70.10;;;;;;10541434;28;20103;-53
2022/01/05 02:59:19;;;;;;;0.88;0.47;;;12.90;70.00;;;;;;10563553;28;20035;-53
2022/01/05 03:04:20;;;;;;;1.05;0.45;;;12.90;70.00;;;;;;10543258;28;20031;-54
2022/01/05 03:09:20;;;;;;;0.73;0.43;;;12.90;70.10;;;;;;10540893;28;20028;-54
2022/01/05 03:14:22;;;;;;;0.68;0.50;;;12.90;70.00;;;;;;10541126;28;20035;-54
2022/01/05 03:19:22;;;;;;;1.23;0.60;;;12.90;70.00;;;;;;10540498;28;20027;-55
2022/01/05 03:24:23;;;;;;;1.25;0.75;;;12.90;70.00;;;;;;10522164;28;20042;-54
2022/01/05 03:29:24;;;;;;;1.85;0.50;;;12.90;70.10;;;;;;10540141;28;20028;-55
2022/01/05 03:34:24;;;;;;;0.65;0.40;;;12.80;70.00;;;;;;10539822;28;20158;-54
2022/01/05 03:39:26;;;;;;;2.38;0.82;;;12.80;70.10;;;;;;10521657;28;20024;-55
2022/01/05 03:44:27;;;;;;;2.38;0.60;;;12.80;70.00;;;;;;10539569;28;20073;-55
2022/01/05 03:49:28;;;;;;;1.10;0.60;;;12.90;70.10;;;;;;10538763;28;20021;-55
2022/01/05 03:54:28;;;;;;;1.00;0.55;;;12.80;70.00;;;;;;10520483;28;20032;-56
2022/01/05 03:59:29;;;;;;;0.70;0.47;;;12.80;70.00;;;;;;10580691;28;20032;-55
2022/01/05 04:04:30;;;;;;;3.75;1.20;;;12.80;70.00;;;;;;10521317;28;20123;-55
2022/01/05 04:09:30;;;;;;;0.85;0.50;;;12.80;70.00;;;;;;10520444;28;20028;-53
2022/01/05 04:14:31;;;;;;;1.50;0.60;;;12.80;70.00;;;;;;10520080;28;20483;-55
2022/01/05 04:19:32;;;;;;;1.70;0.68;;;12.80;70.00;;;;;;10538292;28;20361;-54
2022/01/05 04:24:33;;;;;;;0.50;0.40;;;12.80;70.00;;;;;;10537822;28;20055;-55
2022/01/05 04:29:33;;;;;;;1.83;0.90;;;12.80;70.00;;;;;;10502655;28;20028;-56
2022/01/05 04:34:34;;;;;;;1.23;0.77;;;12.80;70.00;;;;;;10519722;28;20047;-55
2022/01/05 04:39:36;;;;;;;0.88;0.50;;;12.70;70.00;;;;;;10537337;28;20020;-55
2022/01/05 04:44:37;;;;;;;2.40;0.70;;;12.70;70.00;;;;;;10519283;28;20480;-54
2022/01/05 04:49:39;;;;;;;0.98;0.45;;;12.70;70.00;;;;;;10518763;28;20038;-55
2022/01/05 04:54:40;;;;;;;2.45;0.38;;;12.70;70.00;;;;;;10520067;28;20077;-55
2022/01/05 04:59:41;;;;;;;1.00;0.60;;;12.70;70.00;;;;;;10559953;28;20581;-54
2022/01/05 05:04:42;;;;;;;1.15;0.40;;;12.70;69.90;;;;;;10536187;28;20031;-55
2022/01/05 05:09:42;;;;;;;0.55;0.47;;;12.70;69.90;;;;;;10536451;28;20046;-54
2022/01/05 05:14:44;;;;;;;0.90;0.47;;;12.70;69.90;;;;;;10536265;28;20056;-55
2022/01/05 05:19:45;;;;;;;1.75;0.60;;;12.70;69.90;;;;;;10536277;28;20103;-55
2022/01/05 05:24:46;;;;;;;0.30;0.30;;;12.70;69.90;;;;;;10536011;28;20040;-55
2022/01/05 05:29:47;;;;;;;1.20;0.50;;;12.60;69.90;;;;;;10518108;28;20039;-54
2022/01/05 05:34:47;;;;;;;0.82;0.40;;;12.70;69.90;;;;;;10517986;28;20509;-54
2022/01/05 05:39:48;;;;;;;1.10;0.55;;;12.70;70.00;;;;;;10517665;28;20184;-53
2022/01/05 05:44:49;;;;;;;2.63;0.70;;;12.70;70.00;;;;;;10535603;28;20030;-54
2022/01/05 05:49:49;;;;;;;0.80;0.45;;;12.60;70.10;;;;;;10501020;28;20119;-55
2022/01/05 05:54:52;;;;;;;1.48;0.50;;;12.60;69.90;;;;;;10520187;28;20047;-53
2022/01/05 05:59:52;;;;;;;1.00;0.60;;;12.60;69.90;;;;;;10557394;28;20095;-55
2022/01/05 06:04:53;;;;;;;1.50;0.82;;;12.60;69.90;;;;;;10535840;28;20115;-55
2022/01/05 06:09:54;;;;;;;2.35;0.85;;;12.60;70.00;;;;;;10535710;28;20028;-55
2022/01/05 06:14:55;;;;;;;1.17;0.50;;;12.60;69.90;;;;;;10503509;28;20124;-54
2022/01/05 06:19:55;;;;;;;1.23;0.50;;;12.60;69.90;;;;;;10543305;28;20476;-55
2022/01/05 06:24:56;;;;;;;1.70;0.63;;;12.60;69.80;;;;;;10507678;28;20046;-53
2022/01/05 06:29:57;;;;;;;1.35;0.60;;;12.60;69.80;;;;;;10543019;28;20107;-54
2022/01/05 06:34:57;;;;;;;1.25;0.63;;;12.60;69.80;;;;;;10524069;28;20123;-55
2022/01/05 06:39:58;;;;;;;1.20;0.63;;;12.60;69.90;;;;;;10542210;28;20443;-53
2022/01/05 06:44:59;;;;;;;2.30;0.63;;;12.60;69.80;;;;;;10523822;28;20078;-55
2022/01/05 06:49:59;;;;;;;2.15;0.70;;;12.50;69.80;;;;;;10541726;28;20038;-55
2022/01/05 06:55:00;;;;;;;1.50;0.73;;;12.50;69.80;;;;;;10527500;28;20024;-55
2022/01/05 07:00:01;;;;;;;1.95;0.57;;;12.60;69.80;;;;;;10579784;28;20069;-55
2022/01/05 07:05:04;;;;;;;1.05;0.50;;;12.50;69.80;;;;;;10541188;28;20032;-54
2022/01/05 07:10:07;;;;;;;0.80;0.40;;;12.50;69.80;;;;;;10522968;28;20099;-55
2022/01/05 07:15:08;;;;;;;1.17;0.50;;;12.50;69.70;;;;;;10522788;28;20042;-55
2022/01/05 07:20:11;;;;;;;0.75;0.60;;;12.50;69.70;;;;;;10522453;28;20056;-55
2022/01/05 07:25:11;;;;;;;1.20;0.50;;;12.50;69.80;;;;;;10465071;28;20041;-55
2022/01/05 07:30:12;;;;;;;1.45;0.80;;;12.50;69.70;;;;;;10456884;28;20033;-55
2022/01/05 07:35:13;;;;;;;1.40;0.50;;;12.50;69.70;;;;;;10455577;28;20041;-55
2022/01/05 07:40:14;;;;;;;1.77;0.50;;;12.50;69.70;;;;;;10455148;28;20116;-54
2022/01/05 07:45:15;;;;;;;0.60;0.50;;;12.50;69.70;;;;;;10454750;28;20814;-55
2022/01/05 07:50:15;;;;;;;0.80;0.50;;;12.50;69.80;;;;;;10454790;28;20048;-54
2022/01/05 07:55:16;;;;;;;1.13;0.60;;;12.50;69.80;;;;;;10462097;28;20415;-55
2022/01/05 08:00:17;;;;;;;1.60;0.60;;;12.40;69.70;;;;;;10491215;28;20032;-55
2022/01/05 08:05:18;;;;;;;1.30;0.68;;;12.50;69.80;;;;;;10454079;28;20036;-54
2022/01/05 08:10:19;;;;;;;1.63;0.73;;;12.50;69.70;;;;;;10455181;28;20489;-56
2022/01/05 08:15:20;;;;;;;0.98;0.50;;;12.50;69.70;;;;;;10453608;28;20116;-55
2022/01/05 08:20:20;;;;;;;2.10;0.63;;;12.40;69.70;;;;;;10451339;28;20086;-55
2022/01/05 08:25:21;;;;;;;2.92;0.80;;;12.40;69.70;;;;;;10520685;28;20182;-54
2022/01/05 08:30:26;;;;;;;1.10;0.40;;;12.40;69.60;;;;;;10537710;28;20040;-55
2022/01/05 08:35:27;;;;;;;2.10;0.80;;;12.40;69.60;;;;;;10537262;28;20039;-55
2022/01/05 08:40:27;;;;;;;1.50;0.50;;;12.40;69.70;;;;;;10519507;28;20026;-53
2022/01/05 08:45:28;;;;;;;1.42;0.50;;;12.40;69.60;;;;;;10518976;28;20035;-54
2022/01/05 08:50:32;;;;;;;1.92;0.63;;;12.40;69.60;;;;;;10537089;28;20068;-55
2022/01/05 08:55:41;;;;;;;1.52;0.55;;;12.40;69.60;;;;;;10527298;28;20039;-53
2022/01/05 09:00:42;;;;;;;1.00;0.50;;;12.40;69.70;;;;;;10569408;28;20017;-55
2022/01/05 09:05:44;;;;;;;0.80;0.40;;;12.40;69.60;;;;;;10519100;28;20020;-55
2022/01/05 09:10:44;;;;;;;2.38;0.70;;;12.40;69.60;;;;;;10537149;28;20031;-56
2022/01/05 09:15:45;;;;;;;2.70;0.93;;;12.40;69.70;;;;;;10536317;28;20027;-55
2022/01/05 09:20:46;;;;;;;3.78;1.10;;;12.40;69.70;;;;;;10536502;28;20492;-54
2022/01/05 09:25:46;;;;;;;1.05;0.60;;;12.40;69.70;;;;;;10535981;28;20048;-55
2022/01/05 09:30:47;;;;;;;1.23;0.80;;;12.30;69.60;;;;;;10518311;28;20123;-55
2022/01/05 09:35:50;;;;;;;1.83;0.52;;;12.40;69.70;;;;;;10535637;28;20099;-54
2022/01/05 09:47:08;;;;;;;2.17;1.08;;;12.40;69.60;;;;;;10520244;28;20040;-56
2022/01/05 09:52:11;;;;;;;1.88;0.73;;;12.30;69.60;;;;;;10437770;28;20101;-54
2022/01/05 09:57:16;;;;;;;3.03;0.70;;;12.30;69.60;;;;;;10566256;28;20020;-55
2022/01/05 10:02:18;;;;;;;2.05;0.80;;;12.30;69.70;;;;;;10545227;28;20032;-55
2022/01/05 10:07:20;;;;;;;1.20;0.55;;;12.30;69.60;;;;;;10525571;28;20104;-56
2022/01/05 10:12:22;;;;;;;1.95;0.77;;;12.30;69.60;;;;;;10525266;28;20503;-55
2022/01/05 10:17:29;;;;;;;1.40;0.70;;;12.30;69.60;;;;;;10543249;28;20020;-55
2022/01/05 10:22:36;;;;;;;1.27;0.75;;;12.30;69.60;;;;;;10524807;28;20099;-55
2022/01/05 10:27:36;;;;;;;2.53;0.80;;;12.30;69.60;;;;;;10524750;28;20032;-55
2022/01/05 10:32:38;;;;;;;1.65;0.65;;;12.30;69.60;;;;;;10524312;28;20040;-53
2022/01/05 10:37:42;;;;;;;1.60;0.60;;;12.30;70.20;;;;;;10524168;28;20050;-55
2022/01/05 10:42:44;;;;;;;2.83;0.80;;;12.30;69.50;;;;;;10523840;28;20156;-55
2022/01/05 10:48:06;;;;;;;1.42;0.50;;;12.30;69.50;;;;;;10523854;28;20031;-55
2022/01/05 10:53:08;;;;;;;2.28;0.93;;;12.30;69.40;;;;;;10523802;28;20035;-55
2022/01/05 10:58:12;;;;;;;1.38;0.52;;;12.30;69.50;;;;;;10571847;28;20135;-55
2022/01/05 11:03:37;;;;;;;2.50;0.60;;;12.30;69.50;;;;;;10492456;28;20035;-55
2022/01/05 11:08:54;;;;;;;1.70;0.90;;;12.30;69.50;;;;;;10482753;28;20028;-54
2022/01/05 11:13:55;;;;;;;1.00;0.70;;;12.30;69.50;;;;;;10481098;28;20116;-55
2022/01/05 11:19:17;;;;;;;1.00;0.57;;;12.30;69.60;;;;;;10480795;28;20025;-55
2022/01/05 11:24:19;;;;;;;1.58;0.60;;;12.30;69.60;;;;;;10480408;28;20068;-54
2022/01/05 11:29:20;;;;;;;1.65;0.70;;;12.30;69.60;;;;;;10498758;28;20024;-55
2022/01/05 11:34:22;;;;;;;2.72;0.70;;;12.20;69.60;;;;;;10480670;28;20037;-55
2022/01/05 11:39:24;;;;;;;1.75;0.65;;;12.30;69.60;;;;;;10479985;28;20029;-55
2022/01/05 11:44:29;;;;;;;1.13;0.50;;;12.30;69.60;;;;;;10480014;28;20107;-54
2022/01/05 11:49:30;;;;;;;1.30;0.68;;;12.30;69.60;;;;;;10497619;28;20032;-53
2022/01/05 11:54:32;;;;;;;2.42;0.85;;;12.20;69.70;;;;;;10497875;28;20028;-55
2022/01/05 11:59:42;;;;;;;1.70;0.70;;;12.30;69.80;;;;;;10479385;28;20122;-54
2022/01/05 12:05:09;;;;;;;2.25;0.63;;;12.20;69.70;;;;;;10496829;28;20025;-55
2022/01/05 12:10:22;;;;;;;2.05;0.98;;;12.20;69.70;;;;;;10475889;28;20124;-53
2022/01/05 12:15:56;;;;;;;3.53;1.00;;;12.20;69.60;;;;;;10478070;28;20035;-55
2022/01/05 12:20:58;;;;;;;1.67;0.75;;;12.20;69.70;;;;;;10507951;28;20032;-55
2022/01/05 12:26:05;;;;;;;0.82;0.40;;;12.20;69.70;;;;;;10519617;28;20537;-53
2022/01/05 12:31:09;;;;;;;2.10;0.65;;;12.20;69.70;;;;;;10538132;28;20459;-53
2022/01/05 12:36:11;;;;;;;1.50;0.52;;;12.20;69.70;;;;;;10519704;28;20024;-54
2022/01/05 12:41:28;;;;;;;1.02;0.68;;;12.20;69.70;;;;;;10519837;28;20050;-55
2022/01/05 12:46:43;;;;;;;1.13;0.50;;;12.20;69.70;;;;;;10519401;28;20043;-55
2022/01/05 12:52:01;;;;;;;2.10;0.77;;;12.20;69.70;;;;;;10537043;28;20108;-54
2022/01/05 12:57:05;;;;;;;1.90;0.70;;;12.20;69.70;;;;;;10557860;28;20465;-54
2022/01/05 13:02:13;;;;;;;3.42;0.95;;;12.20;69.70;;;;;;10558607;28;20082;-53
2022/01/05 13:07:14;;;;;;;1.40;0.52;;;12.20;69.70;;;;;;10536592;28;20212;-54
2022/01/05 13:12:21;;;;;;;0.70;0.40;;;12.20;69.80;;;;;;10536570;28;20122;-55
2022/01/05 13:17:28;;;;;;;0.77;0.47;;;12.20;69.60;;;;;;10537003;28;20028;-55
2022/01/05 13:22:44;;;;;;;1.80;0.52;;;12.20;69.60;;;;;;10536168;28;20050;-55
2022/01/05 13:27:49;;;;;;;1.23;0.43;;;12.20;69.70;;;;;;10520210;28;20028;-55
2022/01/05 13:32:58;;;;;;;1.83;0.80;;;12.20;69.60;;;;;;10535911;28;20551;-55
2022/01/05 13:37:59;;;;;;;2.28;0.90;;;12.20;69.60;;;;;;10518759;28;20111;-55
2022/01/05 13:43:02;;;;;;;1.85;0.93;;;12.20;69.70;;;;;;10500748;28;20476;-53
2022/01/05 13:48:05;;;;;;;2.17;0.90;;;12.20;69.70;;;;;;10518071;28;20069;-55
2022/01/05 13:53:23;;;;;;;1.55;0.45;;;12.20;69.70;;;;;;10535653;28;20035;-54
2022/01/05 13:58:27;;;;;;;1.77;0.68;;;12.20;70.30;;;;;;10567934;28;20039;-54
2022/01/05 14:03:54;;;;;;;2.15;0.80;;;12.20;69.70;;;;;;10526754;28;20024;-53
2022/01/05 14:09:04;;;;;;;2.70;0.57;;;12.20;69.70;;;;;;10506226;28;20044;-55
2022/01/05 14:14:11;;;;;;;0.57;0.35;;;12.20;69.70;;;;;;10517335;28;20361;-55
2022/01/05 14:19:24;;;;;;;2.58;0.70;;;12.20;69.80;;;;;;10517626;28;20120;-55
2022/01/05 14:24:34;;;;;;;3.28;0.93;;;12.20;69.70;;;;;;10518141;28;20036;-54
2022/01/05 14:29:34;;;;;;;2.10;0.68;;;12.20;69.80;;;;;;10534819;28;20032;-55
2022/01/05 14:34:52;;;;;;;1.90;0.85;;;12.20;69.80;;;;;;10517774;28;20050;-55
2022/01/05 14:39:54;;;;;;;1.77;0.50;;;12.20;69.80;;;;;;10525228;28;20043;-55
2022/01/05 14:44:55;;;;;;;3.63;0.82;;;12.10;69.80;;;;;;10542014;28;20020;-54
2022/01/05 14:49:57;;;;;;;1.23;0.73;;;12.20;69.80;;;;;;10523776;28;20028;-55
2022/01/05 14:54:58;;;;;;;1.67;0.60;;;12.10;69.80;;;;;;10527000;28;20041;-55
2022/01/05 14:59:59;;;;;;;2.70;0.60;;;12.20;69.80;;;;;;10562112;28;20302;-55
2022/01/05 15:05:00;;;;;;;3.10;0.82;;;12.10;69.70;;;;;;10541126;28;20024;-55
2022/01/05 15:10:00;;;;;;;1.45;0.70;;;12.10;69.80;;;;;;10523009;28;20068;-55
2022/01/05 15:15:01;;;;;;;1.73;0.93;;;12.10;69.80;;;;;;10540534;28;20080;-55
2022/01/05 15:20:03;;;;;;;2.67;0.60;;;12.10;69.80;;;;;;10522459;28;20502;-55
2022/01/05 15:25:04;;;;;;;4.20;0.52;;;12.10;69.80;;;;;;10540446;28;20052;-53
2022/01/05 15:30:06;;;;;;;3.03;0.70;;;12.10;69.80;;;;;;10540283;28;20099;-55
2022/01/05 15:35:07;;;;;;;1.45;0.70;;;12.10;69.80;;;;;;10505200;28;20119;-55
2022/01/05 15:40:10;;;;;;;1.58;0.50;;;12.10;69.80;;;;;;10521805;28;20028;-53
2022/01/05 15:45:11;;;;;;;1.15;0.60;;;12.10;69.80;;;;;;10539363;28;20034;-54
2022/01/05 15:50:12;;;;;;;1.50;0.60;;;12.10;69.80;;;;;;10521341;28;20103;-54
2022/01/05 15:55:17;;;;;;;2.50;0.95;;;12.10;69.90;;;;;;10526900;28;20107;-55
2022/01/05 16:05:42;;;;;;;1.58;0.70;;;12.00;69.80;;;;;;10539380;28;20048;-55
2022/01/05 16:10:43;;;;;;;2.75;0.70;;;12.00;69.80;;;;;;10539244;28;20036;-53
2022/01/05 16:15:46;;;;;;;1.25;0.50;;;12.00;69.80;;;;;;10520198;28;20028;-54
2022/01/05 16:20:47;;;;;;;1.17;0.57;;;12.10;69.80;;;;;;10520229;28;20027;-55
2022/01/05 16:25:48;;;;;;;1.25;0.57;;;12.00;69.80;;;;;;10537908;28;20044;-55
2022/01/05 16:30:49;;;;;;;1.63;0.73;;;12.00;69.80;;;;;;10519885;28;20209;-55
2022/01/05 16:35:50;;;;;;;1.05;0.45;;;12.00;69.80;;;;;;10537619;28;20032;-54
2022/01/05 16:40:51;;;;;;;2.65;0.82;;;12.00;69.80;;;;;;10536337;28;20024;-55
2022/01/05 16:45:52;;;;;;;1.60;0.60;;;12.00;70.40;;;;;;10537346;28;20030;-53
2022/01/05 16:50:53;;;;;;;1.38;0.65;;;12.00;69.80;;;;;;10537152;28;20361;-55
2022/01/05 16:55:54;;;;;;;1.90;0.60;;;12.00;69.80;;;;;;10531158;28;20020;-55
2022/01/05 17:00:55;;;;;;;2.65;0.80;;;12.00;69.90;;;;;;10549502;28;20016;-55
2022/01/05 17:05:56;;;;;;;2.08;0.70;;;12.00;69.80;;;;;;10536676;28;20460;-55
2022/01/05 17:10:56;;;;;;;2.30;0.80;;;12.00;69.90;;;;;;10501578;28;20028;-55
2022/01/05 17:15:58;;;;;;;1.27;0.70;;;12.00;69.80;;;;;;10518511;28;20404;-55
2022/01/05 17:20:59;;;;;;;1.05;0.52;;;12.00;69.80;;;;;;10518979;28;20020;-55
2022/01/05 17:26:00;;;;;;;1.90;0.50;;;12.00;69.80;;;;;;10517875;28;20491;-55
2022/01/05 17:31:00;;;;;;;1.60;0.65;;;12.00;69.80;;;;;;10535996;28;20035;-55
2022/01/05 17:36:02;;;;;;;0.85;0.50;;;12.00;69.90;;;;;;10535763;28;20507;-54
2022/01/05 17:41:03;;;;;;;0.98;0.50;;;12.00;69.80;;;;;;10535811;28;20070;-55
2022/01/05 17:46:04;;;;;;;1.70;0.95;;;12.00;69.90;;;;;;10535797;28;20023;-53
2022/01/05 17:51:05;;;;;;;1.63;0.52;;;12.00;69.80;;;;;;10517440;28;20028;-55
2022/01/05 17:56:05;;;;;;;1.95;0.80;;;11.90;69.80;;;;;;10548800;28;20031;-55
2022/01/05 18:01:06;;;;;;;1.83;0.60;;;11.90;69.80;;;;;;10565485;28;20533;-55
2022/01/05 18:06:07;;;;;;;1.65;0.75;;;11.90;69.80;;;;;;10517784;28;20031;-54
2022/01/05 18:11:08;;;;;;;1.60;0.50;;;11.90;69.80;;;;;;10520835;28;20042;-55
2022/01/05 18:16:13;;;;;;;0.85;0.40;;;11.90;69.80;;;;;;10543767;28;20032;-55
2022/01/05 18:21:15;;;;;;;1.88;0.68;;;11.90;69.80;;;;;;10525786;28;20398;-53
2022/01/05 18:26:19;;;;;;;1.60;0.77;;;11.90;69.80;;;;;;10542833;28;20420;-54
2022/01/05 18:31:21;;;;;;;2.25;0.80;;;11.90;69.80;;;;;;10525410;28;20387;-55
2022/01/05 18:36:22;;;;;;;3.28;0.63;;;11.90;69.70;;;;;;10524317;28;20032;-55
2022/01/05 18:41:23;;;;;;;1.05;0.50;;;12.00;69.70;;;;;;10524280;28;20059;-55
2022/01/05 18:46:25;;;;;;;0.90;0.50;;;12.00;69.70;;;;;;10542119;28;20164;-54
2022/01/05 18:51:25;;;;;;;1.35;0.50;;;12.00;69.70;;;;;;10490438;28;20123;-55
2022/01/05 18:56:30;;;;;;;1.52;0.50;;;12.00;69.70;;;;;;10557596;28;20024;-56
2022/01/05 19:01:31;;;;;;;0.95;0.40;;;11.90;69.70;;;;;;10550021;28;20039;-56
2022/01/05 19:06:32;;;;;;;1.70;0.60;;;12.00;69.60;;;;;;10541207;28;20031;-55
2022/01/05 19:11:33;;;;;;;1.95;0.70;;;12.00;69.50;;;;;;10523188;28;20035;-54
2022/01/05 19:16:34;;;;;;;0.80;0.40;;;12.00;69.50;;;;;;10522913;28;20476;-54
2022/01/05 19:21:35;;;;;;;1.60;0.70;;;12.00;69.50;;;;;;10522364;28;20423;-54
2022/01/05 19:26:35;;;;;;;2.30;0.82;;;12.00;69.50;;;;;;10456220;28;20347;-54
2022/01/05 19:31:36;;;;;;;1.67;0.70;;;12.00;70.20;;;;;;10439072;28;20031;-55
2022/01/05 19:36:37;;;;;;;0.95;0.60;;;12.00;69.50;;;;;;10455701;28;20037;-55
2022/01/05 19:41:38;;;;;;;1.92;0.55;;;12.00;69.70;;;;;;10455365;28;20020;-54
2022/01/05 19:46:43;;;;;;;2.35;0.70;;;12.00;69.60;;;;;;10456341;28;20021;-55
2022/01/05 19:51:52;;;;;;;2.03;0.70;;;12.00;69.60;;;;;;10455089;28;20033;-55
2022/01/05 19:57:00;;;;;;;1.17;0.70;;;11.90;69.70;;;;;;10474000;28;20021;-54
2022/01/05 20:02:06;;;;;;;0.77;0.50;;;11.90;69.60;;;;;;10476480;28;20555;-55
2022/01/05 20:07:07;;;;;;;3.75;0.70;;;11.90;69.60;;;;;;10438047;28;20066;-55
2022/01/05 20:12:09;;;;;;;4.55;1.00;;;12.00;69.50;;;;;;10454675;28;20035;-55
2022/01/05 20:17:10;;;;;;;1.05;0.47;;;12.00;69.30;;;;;;10453985;28;20190;-55
2022/01/05 20:22:11;;;;;;;0.90;0.63;;;12.00;69.30;;;;;;10464438;28;20127;-54
2022/01/05 20:27:11;;;;;;;0.77;0.40;;;12.00;69.30;;;;;;10538130;28;20036;-54
2022/01/05 20:32:14;;;;;;;1.20;0.45;;;12.00;69.40;;;;;;10537090;28;20503;-54
2022/01/05 20:37:15;;;;;;;1.45;0.57;;;12.00;69.40;;;;;;10519646;28;20047;-54
2022/01/05 20:42:17;;;;;;;2.90;0.93;;;12.00;69.50;;;;;;10519525;28;20039;-55
2022/01/05 20:47:17;;;;;;;1.17;0.60;;;12.00;69.60;;;;;;10519045;28;20040;-54
2022/01/05 20:52:18;;;;;;;2.08;1.13;;;12.00;69.60;;;;;;10537115;28;20024;-55
2022/01/05 20:57:19;;;;;;;1.50;0.70;;;11.90;69.50;;;;;;10542103;28;20040;-55
2022/01/05 21:02:19;;;;;;;1.50;0.43;;;11.90;69.60;;;;;;10537955;28;20027;-55
2022/01/05 21:07:20;;;;;;;1.33;0.40;;;11.90;69.60;;;;;;10536674;28;20099;-55
2022/01/05 21:12:21;;;;;;;1.33;0.60;;;11.90;69.60;;;;;;10518573;28;20035;-55
2022/01/05 21:17:22;;;;;;;1.08;0.50;;;11.90;70.20;;;;;;10536606;28;20161;-55
2022/01/05 21:22:22;;;;;;;0.80;0.60;;;11.90;69.60;;;;;;10536344;28;20127;-55
2022/01/05 21:27:23;;;;;;;0.60;0.40;;;12.00;69.40;;;;;;10518149;28;20032;-53
2022/01/05 21:32:24;;;;;;;1.77;0.57;;;12.00;69.30;;;;;;10536035;28;20111;-55
2022/01/05 21:37:25;;;;;;;1.52;0.50;;;12.00;69.40;;;;;;10517869;28;20028;-55
2022/01/05 21:42:25;;;;;;;1.15;0.45;;;12.00;69.50;;;;;;10536225;28;20503;-53
2022/01/05 21:47:27;;;;;;;1.75;0.80;;;11.90;69.50;;;;;;10543627;28;20434;-54
2022/01/05 21:52:27;;;;;;;1.05;0.50;;;11.90;69.50;;;;;;10526227;28;20043;-53
2022/01/05 21:57:28;;;;;;;1.35;0.60;;;11.90;69.50;;;;;;10568583;28;20442;-55
2022/01/05 22:02:29;;;;;;;1.83;0.68;;;11.90;69.50;;;;;;10561894;28;20028;-53
2022/01/05 22:07:29;;;;;;;1.42;0.77;;;11.90;69.40;;;;;;10543597;28;20039;-54
2022/01/05 22:12:30;;;;;;;3.03;0.82;;;12.00;69.40;;;;;;10525219;28;20040;-54
2022/01/05 22:17:31;;;;;;;0.77;0.47;;;11.90;69.40;;;;;;10525090;28;20107;-54
2022/01/05 22:22:32;;;;;;;1.83;0.70;;;12.00;69.40;;;;;;10542830;28;20123;-53
2022/01/05 22:27:33;;;;;;;1.00;0.50;;;12.00;69.20;;;;;;10524867;28;20133;-55
2022/01/05 22:32:34;;;;;;;1.50;0.70;;;12.00;69.20;;;;;;10524289;28;20028;-55
2022/01/05 22:37:35;;;;;;;1.45;0.50;;;12.00;69.20;;;;;;10524598;28;20024;-55
2022/01/05 22:42:35;;;;;;;1.38;0.60;;;12.00;69.30;;;;;;10524390;28;20024;-56
2022/01/05 22:47:36;;;;;;;2.38;0.60;;;12.00;69.30;;;;;;10523818;28;20028;-55
2022/01/05 22:52:37;;;;;;;1.20;0.57;;;11.90;69.30;;;;;;10541850;28;20034;-55
2022/01/05 22:57:38;;;;;;;1.20;0.40;;;11.90;69.40;;;;;;10531713;28;20027;-54
2022/01/05 23:02:39;;;;;;;1.15;0.55;;;11.90;69.50;;;;;;10558434;28;20055;-55
2022/01/05 23:07:40;;;;;;;1.95;0.50;;;11.90;69.40;;;;;;10523270;28;20484;-54
2022/01/05 23:12:41;;;;;;;1.92;0.57;;;12.00;69.20;;;;;;10541407;28;20531;-55
2022/01/05 23:17:42;;;;;;;1.52;0.40;;;12.00;69.20;;;;;;10522985;28;20434;-55
2022/01/05 23:22:45;;;;;;;1.10;0.50;;;11.90;69.10;;;;;;10540523;28;20040;-55
2022/01/05 23:27:46;;;;;;;2.88;0.50;;;12.00;69.30;;;;;;10522343;28;20097;-54
2022/01/05 23:32:52;;;;;;;1.63;0.65;;;11.90;69.30;;;;;;10522274;28;20039;-55
2022/01/05 23:37:55;;;;;;;1.48;0.50;;;11.90;69.40;;;;;;10540119;28;20085;-55
2022/01/05 23:42:57;;;;;;;1.60;0.50;;;11.90;69.50;;;;;;10522041;28;20031;-54
2022/01/05 23:48:02;;;;;;;1.15;0.45;;;11.80;69.50;;;;;;10521806;28;20476;-55
2022/01/05 23:53:04;;;;;;;1.48;0.40;;;11.90;69.40;;;;;;10540396;28;20032;-54
2022/01/05 23:58:05;;;;;;;1.65;0.45;;;11.90;69.20;;;;;;10568992;28;20059;-55
